Heat Index [SAI AWOS/ASOS Display]_________FAA Disclaimer: "Not for use in aviation at this time______________" Untitled Document
Hamilton Municipal Airport NY (VGC)
000
07:29
17/04/29
00
N/A
N/A
29.99
N/A
1134
60(F), 16(C)
46(F), 8(C)
60 F
59%
SCT060 OVC080
10
N/A
N/A
N/A
07:29 zulu Wind Calm, Altimeter 29.99
METAR KVGC 290729Z AUTO 00000KT 10SM SCT060 OVC080 16/08 A2999 A02
METAR:
FAA Disclaimer--Advisory Use ONLY, not for flight info--
INFO:
Wind Direction:
Wind Speed:
Wind Gust:
Wind Variable:
Altimeter:
Dens Alt:
Elev:
Temp:
Dwpt:
Wind Chill
Rel Humidity:
Ceiling:
Visibility:
Prsnt Wea:
PCPN:
Remarks:
How to read the WebPage